Startpagina
METAR-TAF:

METAR-TAF

Vliegvelden :

Arnhem, Nederland

Vliegbasis Deelen

breedte: 52-04N, lengte: 005-53E, hoogte: 48 m

Actueel weer

Dit bericht is 17 minuten geleden gemaakt, om 06:25 UTC
Wind 6 kt uit het westzuidwesten, variërend tussen het zuidzuidwesten en het westnoordwesten
Temperatuur 2°C
Vochtigheid 100%
Druk 1015 hPa
Zicht 10 km of meer

METAR: EHDL 190625Z AUTO 24006KT 210V300 9999 NCD 02/02 Q1015 BLU

Tijdstip: 07:42 (06:42 UTC)


TAF: ontbreekt

Waarnemingen en weersverwachtingen van meer dan 4000 vliegvelden (METAR en TAF).

De beschikbare stations zijn de gele en rode punten op de kaart.

Ga met uw muis naar het station om de naam te zien.

Klik dan om waarnemingen en weersverwachtingen te zien.

kaart wijzigen: klik op de groene knoppen met een zwart kruis om in te zoomen, op de groene knop met een streepje om uit te zoomen of op de groene pijlen voor aangrenzende kaarten.


METAR-TAF: